Time;durP1;ratioP1;P1;durP2;ratioP2;P2;SDS_P1;SDS_P2;PMS_P1;PMS_P2;Temp;Humidity;BMP_temperature;BMP_pressure;BME280_temperature;BME280_humidity;BME280_pressure;Samples;Min_cycle;Max_cycle;Signal;HPM_P1;HPM_P2
2020/12/11 00:00:06;;;;;;;97.97;41.90;;;;;;;1.54;74.71;98161.00;2146278;82;21141;-81
2020/12/11 00:03:09;;;;;;;92.43;40.50;;;;;;;1.57;74.73;98156.84;2146815;82;21466;-81
2020/12/11 00:06:10;;;;;;;90.43;41.57;;;;;;;1.57;74.67;98154.68;2146973;82;21183;-81
2020/12/11 00:09:11;;;;;;;93.40;40.83;;;;;;;1.60;74.72;98156.08;2146940;82;21296;-81
2020/12/11 00:12:12;;;;;;;89.83;39.50;;;;;;;1.58;74.65;98149.59;2145006;82;21268;-80
2020/12/11 00:15:13;;;;;;;78.77;37.43;;;;;;;1.57;74.69;98145.27;2146681;83;21122;-81
2020/12/11 00:18:14;;;;;;;85.97;38.00;;;;;;;1.56;74.66;98153.80;2146819;82;21133;-81
2020/12/11 00:21:15;;;;;;;80.10;37.93;;;;;;;1.56;74.70;98150.35;2146713;82;21247;-81
2020/12/11 00:24:16;;;;;;;83.23;38.30;;;;;;;1.58;74.67;98150.00;2146541;82;21145;-82
2020/12/11 00:27:17;;;;;;;83.53;40.03;;;;;;;1.59;74.71;98150.46;2146111;82;21173;-82
2020/12/11 00:30:18;;;;;;;85.97;42.20;;;;;;;1.62;74.71;98154.84;2146464;82;21145;-82
2020/12/11 00:33:20;;;;;;;91.50;40.87;;;;;;;1.64;74.67;98160.92;2146597;83;21407;-82
2020/12/11 00:36:21;;;;;;;84.97;40.57;;;;;;;1.65;74.70;98157.52;2146317;82;21249;-82
2020/12/11 00:39:22;;;;;;;82.87;37.90;;;;;;;1.66;74.71;98166.58;2146631;83;21243;-81
2020/12/11 00:42:23;;;;;;;92.80;39.90;;;;;;;1.67;74.61;98164.48;2146890;82;21752;-81
2020/12/11 00:45:24;;;;;;;85.57;37.50;;;;;;;1.68;74.61;98170.09;2147560;83;21294;-81
2020/12/11 00:48:25;;;;;;;77.03;36.80;;;;;;;1.69;74.51;98170.55;2146826;82;21114;-81
2020/12/11 00:51:26;;;;;;;76.67;37.13;;;;;;;1.69;74.57;98169.27;2146878;83;21292;-81
2020/12/11 00:54:27;;;;;;;82.03;37.83;;;;;;;1.67;74.46;98180.32;2146458;83;21121;-80
2020/12/11 00:57:28;;;;;;;87.77;40.27;;;;;;;1.67;74.55;98178.63;2146428;82;21256;-80
2020/12/11 01:00:29;;;;;;;89.97;41.00;;;;;;;1.66;74.51;98173.02;2146398;82;21264;-80
2020/12/11 01:03:30;;;;;;;85.83;41.60;;;;;;;;;;2145806;82;21105;-81
2020/12/11 01:06:31;;;;;;;82.50;39.67;;;;;;;1.68;74.57;98175.23;2145957;82;21569;-82
2020/12/11 01:09:33;;;;;;;81.47;38.77;;;;;;;1.67;74.61;98168.34;2146528;82;21133;-81
2020/12/11 01:12:34;;;;;;;75.00;36.23;;;;;;;1.70;74.69;98162.02;2146292;82;21133;-80
2020/12/11 01:15:35;;;;;;;76.70;36.93;;;;;;;1.72;74.59;98162.06;2146272;82;21268;-81
2020/12/11 01:18:36;;;;;;;83.17;39.23;;;;;;;1.74;74.55;98169.05;2146684;82;21145;-80
2020/12/11 01:21:37;;;;;;;85.93;40.03;;;;;;;1.76;74.56;98167.41;2147123;82;21140;-79
2020/12/11 01:24:38;;;;;;;84.93;41.33;;;;;;;1.78;74.46;98173.48;2146877;82;21209;-80
2020/12/11 01:27:39;;;;;;;87.10;40.03;;;;;;;1.80;74.42;98165.41;2146749;82;21137;-80
2020/12/11 01:30:40;;;;;;;80.73;38.60;;;;;;;1.81;74.43;98163.30;2145219;82;21276;-80
2020/12/11 01:33:41;;;;;;;82.47;40.37;;;;;;;1.82;74.33;98165.46;2146311;83;21141;-80
2020/12/11 01:36:42;;;;;;;79.03;38.07;;;;;;;1.81;74.37;98181.72;2146473;82;21133;-80
2020/12/11 01:39:43;;;;;;;75.83;36.47;;;;;;;1.80;74.42;98182.13;2146239;82;21141;-81
2020/12/11 01:42:44;;;;;;;83.60;39.23;;;;;;;1.78;74.32;98178.63;2146607;83;21336;-80
2020/12/11 01:45:45;;;;;;;83.80;38.60;;;;;;;1.78;74.40;98180.33;2145769;82;21161;-80
2020/12/11 01:48:47;;;;;;;80.00;39.03;;;;;;;1.77;74.37;98180.73;2145871;83;21272;-79
2020/12/11 01:51:48;;;;;;;79.43;39.43;;;;;;;1.78;74.35;98186.34;2146183;83;21124;-80
2020/12/11 01:54:49;;;;;;;87.37;40.97;;;;;;;1.77;74.46;98189.74;2146200;82;21157;-80
2020/12/11 01:57:50;;;;;;;92.97;40.83;;;;;;;1.74;74.41;98193.50;2146791;82;21137;-80
2020/12/11 02:00:51;;;;;;;75.23;35.17;;;;;;;1.70;74.43;98199.31;2147252;82;21152;-80
2020/12/11 02:03:52;;;;;;;80.23;35.57;;;;;;;1.63;74.58;98190.91;2147311;82;21098;-80
2020/12/11 02:06:53;;;;;;;78.73;35.27;;;;;;;1.57;74.66;98191.98;2147399;82;21546;-80
2020/12/11 02:09:57;;;;;;;92.67;38.10;;;;;;;1.50;74.82;98189.59;2147257;82;21133;-80
2020/12/11 02:12:58;;;;;;;82.83;35.90;;;;;;;1.48;74.97;98186.09;2147417;83;21264;-80
2020/12/11 02:15:59;;;;;;;82.17;37.60;;;;;;;1.47;74.95;98187.31;2147488;83;21403;-80
2020/12/11 02:19:00;;;;;;;94.13;41.07;;;;;;;1.44;75.09;98186.80;2147334;83;21101;-79
2020/12/11 02:22:05;;;;;;;90.77;38.77;;;;;;;1.43;75.26;98185.05;2147721;83;21101;-81
2020/12/11 02:25:06;;;;;;;81.60;36.23;;;;;;;1.45;75.28;98181.23;2147847;82;21645;-81
2020/12/11 02:28:07;;;;;;;82.70;36.07;;;;;;;1.45;75.37;98185.09;2147656;82;21129;-80
2020/12/11 02:31:08;;;;;;;86.30;36.87;;;;;;;1.35;75.39;98178.73;2147284;82;21161;-81
2020/12/11 02:34:09;;;;;;;78.50;37.73;;;;;;;1.33;75.53;98170.50;2147459;82;21133;-80
2020/12/11 02:37:11;;;;;;;95.03;40.20;;;;;;;1.33;75.58;98165.36;2147569;82;21141;-79
2020/12/11 02:40:12;;;;;;;93.67;40.43;;;;;;;1.36;75.70;98161.20;2147557;83;21153;-80
2020/12/11 02:43:13;;;;;;;89.33;40.40;;;;;;;1.37;75.63;98156.94;2147261;82;21114;-79
2020/12/11 02:46:14;;;;;;;87.97;39.30;;;;;;;1.39;75.67;98154.89;2146982;82;21307;-80
2020/12/11 02:49:15;;;;;;;89.70;39.87;;;;;;;1.43;75.66;98150.33;2146777;82;21130;-80
2020/12/11 02:52:16;;;;;;;85.90;37.40;;;;;;;1.44;75.60;98153.77;2146864;82;21256;-79
2020/12/11 02:55:17;;;;;;;84.07;37.80;;;;;;;1.41;75.62;98160.97;2147539;82;21134;-81
2020/12/11 02:58:20;;;;;;;85.73;38.77;;;;;;;1.47;75.66;98152.59;2147579;83;21138;-80
2020/12/11 03:01:21;;;;;;;77.90;38.93;;;;;;;1.48;75.56;98143.65;2147684;83;21264;-81
2020/12/11 03:04:24;;;;;;;89.53;40.10;;;;;;;1.52;75.52;98150.66;2147576;82;21681;-79
2020/12/11 03:07:25;;;;;;;94.13;40.17;;;;;;;1.53;75.49;98150.25;2149244;83;21646;-80
2020/12/11 03:10:26;;;;;;;81.93;38.70;;;;;;;1.55;75.51;98142.17;2153238;83;21263;-80
2020/12/11 03:13:27;;;;;;;85.50;38.13;;;;;;;1.53;75.50;98138.26;2152622;83;21256;-80
2020/12/11 03:16:28;;;;;;;83.27;38.00;;;;;;;1.54;75.53;98136.56;2152370;83;21157;-80
2020/12/11 03:19:29;;;;;;;89.37;39.10;;;;;;;1.56;75.58;98140.94;2152551;82;21276;-79
2020/12/11 03:22:30;;;;;;;81.77;38.57;;;;;;;1.58;75.50;98144.44;2153438;83;21296;-79
2020/12/11 03:25:31;;;;;;;84.50;39.67;;;;;;;1.59;75.46;98144.03;2153183;83;21585;-79
2020/12/11 03:28:34;;;;;;;92.80;41.27;;;;;;;1.61;75.54;98144.97;2153483;83;21145;-81
2020/12/11 03:31:36;;;;;;;89.80;42.40;;;;;;;1.66;75.49;98144.72;2152702;83;21538;-81
2020/12/11 03:34:37;;;;;;;91.83;41.00;;;;;;;1.67;75.39;98137.88;2152480;82;21263;-79
2020/12/11 03:37:38;;;;;;;84.20;38.03;;;;;;;1.64;75.39;98146.77;2152875;83;21558;-79
2020/12/11 03:40:42;;;;;;;83.30;39.53;;;;;;;1.62;75.53;98150.57;2153355;83;21151;-81
2020/12/11 03:43:43;;;;;;;91.63;42.47;;;;;;;1.59;75.59;98153.91;2153173;83;21253;-79
2020/12/11 03:46:44;;;;;;;80.47;38.77;;;;;;;1.60;75.80;98153.09;2153268;83;21566;-79
2020/12/11 03:49:45;;;;;;;89.70;38.30;;;;;;;1.56;75.69;98160.23;2153162;83;21566;-82
2020/12/11 03:52:46;;;;;;;92.20;40.53;;;;;;;1.53;75.77;98153.69;2153038;83;21267;-81
2020/12/11 03:55:47;;;;;;;92.23;43.10;;;;;;;1.49;75.82;98151.83;2153433;83;21259;-80
2020/12/11 03:58:48;;;;;;;88.10;39.77;;;;;;;1.49;75.97;98154.41;2153460;83;21240;-81
2020/12/11 04:01:49;;;;;;;99.27;42.83;;;;;;;1.53;76.04;98158.84;2153320;82;21268;-80
2020/12/11 04:04:50;;;;;;;94.80;42.97;;;;;;;1.55;76.01;98164.03;2153119;83;21279;-82
2020/12/11 04:07:51;;;;;;;107.47;47.03;;;;;;;1.58;76.09;98161.58;2153282;82;21287;-80
2020/12/11 04:10:53;;;;;;;89.80;42.07;;;;;;;1.61;76.10;98157.83;2152129;83;21806;-80
2020/12/11 04:13:54;;;;;;;84.87;40.83;;;;;;;1.60;76.05;98161.22;2152331;83;21260;-79
2020/12/11 04:16:59;;;;;;;84.00;40.53;;;;;;;1.58;76.16;98159.00;2152516;83;21279;-81
2020/12/11 04:20:00;;;;;;;78.07;37.83;;;;;;;3.70;83.33;98144.81;2152391;83;21910;-80
2020/12/11 04:23:01;;;;;;;84.73;41.57;;;;;;;3.82;74.67;98140.39;2152434;83;21256;-82
2020/12/11 04:26:02;;;;;;;83.07;40.73;;;;;;;3.26;73.58;98145.23;2152554;83;21299;-80
2020/12/11 04:29:03;;;;;;;81.87;41.83;;;;;;;2.90;73.62;98153.61;2152728;83;21272;-80
2020/12/11 04:32:04;;;;;;;76.83;39.67;;;;;;;2.64;73.81;98151.52;2152223;83;21264;-80
2020/12/11 04:35:06;;;;;;;70.33;35.40;;;;;;;2.47;74.05;98148.36;2152725;83;21256;-81
2020/12/11 04:38:06;;;;;;;88.20;39.63;;;;;;;2.32;74.27;98159.45;2152111;83;21141;-80
2020/12/11 04:41:08;;;;;;;78.97;37.43;;;;;;;2.18;74.56;98154.27;2151965;83;21279;-81
2020/12/11 04:44:09;;;;;;;75.67;37.73;;;;;;;2.10;74.71;98147.98;2152798;83;21145;-80
2020/12/11 04:47:10;;;;;;;75.33;38.60;;;;;;;2.02;74.85;98150.70;2151385;83;21300;-80
2020/12/11 04:50:11;;;;;;;81.10;40.67;;;;;;;2.00;75.19;98149.78;2151711;83;21474;-81
2020/12/11 04:53:12;;;;;;;79.33;40.23;;;;;;;1.99;75.31;98142.47;2150709;83;21141;-80
2020/12/11 04:56:13;;;;;;;76.63;38.77;;;;;;;1.93;75.30;98149.98;2151182;82;21562;-81
2020/12/11 04:59:14;;;;;;;71.03;34.60;;;;;;;1.89;75.42;98151.57;2150869;83;21280;-79
2020/12/11 05:02:15;;;;;;;64.67;31.23;;;;;;;1.85;75.47;98149.72;2150638;83;21267;-81
2020/12/11 05:05:16;;;;;;;74.50;37.30;;;;;;;3.01;85.35;98150.95;2150129;83;21324;-81
2020/12/11 05:08:17;;;;;;;65.90;34.67;;;;;;;3.95;75.29;98142.89;2147270;82;21401;-81
2020/12/11 05:11:18;;;;;;;77.70;37.83;;;;;;;3.40;73.36;98150.37;2143562;83;21267;-78
2020/12/11 05:14:19;;;;;;;76.90;39.73;;;;;;;3.02;73.57;98148.83;2145275;82;21109;-79
2020/12/11 05:17:21;;;;;;;68.47;36.07;;;;;;;2.75;73.70;98141.54;2144215;82;21265;-82
2020/12/11 05:20:22;;;;;;;68.33;35.20;;;;;;;2.49;73.95;98135.53;2144552;82;21255;-80
2020/12/11 05:23:23;;;;;;;70.47;34.93;;;;;;;2.23;74.28;98147.56;2143580;82;22217;-80
2020/12/11 05:26:24;;;;;;;70.50;34.73;;;;;;;2.08;74.70;98149.63;2144377;83;21180;-81
2020/12/11 05:29:25;;;;;;;73.10;36.67;;;;;;;1.92;75.04;98153.38;2144114;82;21261;-81
2020/12/11 05:32:26;;;;;;;69.00;34.73;;;;;;;1.85;75.41;98153.98;2143615;82;21669;-80
2020/12/11 05:35:27;;;;;;;68.53;35.43;;;;;;;1.82;75.58;98156.45;2143715;82;21271;-82
2020/12/11 05:38:28;;;;;;;72.90;36.40;;;;;;;1.81;75.72;98162.02;2144593;82;21260;-83
2020/12/11 05:41:29;;;;;;;68.07;35.13;;;;;;;1.76;75.86;98160.97;2145632;83;21554;-81
2020/12/11 05:44:30;;;;;;;74.27;35.13;;;;;;;1.79;76.12;98167.92;2145546;82;21604;-79
2020/12/11 05:47:31;;;;;;;73.23;36.27;;;;;;;1.78;76.23;98167.05;2143708;82;21336;-80
2020/12/11 05:50:32;;;;;;;75.70;35.53;;;;;;;1.74;76.22;98169.05;2143998;82;21283;-80
2020/12/11 05:53:33;;;;;;;58.37;28.23;;;;;;;1.77;76.36;98155.42;2143580;82;21125;-80
2020/12/11 05:56:34;;;;;;;64.97;36.37;;;;;;;1.79;76.63;98158.92;2143382;82;21125;-79
2020/12/11 05:59:35;;;;;;;69.63;36.43;;;;;;;1.76;76.43;98168.69;2143218;82;21106;-79
2020/12/11 06:02:36;;;;;;;72.87;38.23;;;;;;;1.75;76.57;98171.22;2143241;82;21279;-80
2020/12/11 06:05:38;;;;;;;71.50;37.10;;;;;;;1.76;76.61;98171.67;2143955;82;21138;-78
2020/12/11 06:08:39;;;;;;;66.43;33.67;;;;;;;1.76;76.59;98177.70;2143965;82;21283;-78
2020/12/11 06:11:40;;;;;;;74.30;36.13;;;;;;;1.80;76.63;98179.97;2143370;82;21847;-79
2020/12/11 06:14:41;;;;;;;69.67;34.80;;;;;;;1.82;76.60;98177.91;2142107;82;21157;-78
2020/12/11 06:17:42;;;;;;;73.70;36.37;;;;;;;1.87;76.51;98172.93;2143709;83;21437;-79
2020/12/11 06:20:45;;;;;;;73.20;37.67;;;;;;;1.94;76.52;98168.88;2144224;82;21125;-79
2020/12/11 06:23:46;;;;;;;79.23;38.27;;;;;;;2.02;76.38;98166.15;2143355;83;21318;-79
2020/12/11 06:26:47;;;;;;;76.90;37.47;;;;;;;2.03;76.32;98169.19;2143537;82;21613;-77
2020/12/11 06:29:48;;;;;;;68.93;36.37;;;;;;;2.04;76.37;98171.81;2143701;82;21122;-78
2020/12/11 06:32:49;;;;;;;70.07;35.40;;;;;;;2.06;76.24;98171.45;2144111;83;21253;-79
2020/12/11 06:35:50;;;;;;;73.87;35.07;;;;;;;2.05;76.21;98171.41;2144697;82;21887;-77
2020/12/11 06:38:51;;;;;;;75.53;35.47;;;;;;;2.05;76.18;98186.84;2143863;82;21117;-78
2020/12/11 06:41:52;;;;;;;69.23;33.77;;;;;;;2.02;76.10;98188.03;2144887;83;21271;-78
2020/12/11 06:44:53;;;;;;;74.97;38.40;;;;;;;2.01;76.22;98180.72;2144460;82;21255;-78
2020/12/11 06:47:54;;;;;;;76.60;37.80;;;;;;;2.01;76.18;98179.84;2144176;82;21256;-79
2020/12/11 06:50:55;;;;;;;83.30;39.50;;;;;;;1.99;76.19;98185.34;2143582;82;21255;-79
2020/12/11 06:53:56;;;;;;;78.10;37.37;;;;;;;2.01;76.27;98181.13;2143995;82;21149;-77
2020/12/11 06:56:57;;;;;;;70.87;35.63;;;;;;;2.04;76.25;98173.52;2143468;82;21129;-77
2020/12/11 07:00:01;;;;;;;73.30;36.23;;;;;;;2.04;76.17;98176.96;2143323;83;21275;-79
2020/12/11 07:03:02;;;;;;;67.50;31.83;;;;;;;2.04;76.17;98176.09;2143263;83;21269;-78
2020/12/11 07:06:03;;;;;;;66.17;36.23;;;;;;;2.07;76.28;98180.05;2143413;82;21264;-80
2020/12/11 07:09:06;;;;;;;75.07;37.50;;;;;;;2.41;83.41;98188.09;2144366;83;21141;-80
2020/12/11 07:12:06;;;;;;;67.13;34.93;;;;;;;6.85;89.83;98174.20;2144913;82;21493;-79
2020/12/11 07:15:08;;;;;;;77.40;39.70;;;;;;;10.08;83.71;98164.37;2144640;82;21252;-79
2020/12/11 07:18:09;;;;;;;82.63;36.87;;;;;;;12.08;74.66;98160.37;2143839;82;21240;-79
2020/12/11 07:21:10;;;;;;;63.37;34.83;;;;;;;13.15;68.89;98164.45;2143892;83;21268;-78
2020/12/11 07:24:13;;;;;;;62.07;34.83;;;;;;;13.84;61.88;98158.06;2143943;82;21306;-78
2020/12/11 07:27:14;;;;;;;60.20;33.73;;;;;;;11.35;56.95;98165.39;2142823;83;21925;-79
2020/12/11 07:30:15;;;;;;;65.33;36.20;;;;;;;8.87;57.01;98178.88;2142899;82;21259;-79
2020/12/11 07:33:17;;;;;;;64.37;33.63;;;;;;;6.90;59.22;98185.52;2143501;82;21240;-80
2020/12/11 07:36:18;;;;;;;60.17;34.03;;;;;;;5.49;61.95;98186.30;2143650;82;21978;-79
2020/12/11 07:39:19;;;;;;;68.93;36.73;;;;;;;4.56;64.27;98189.28;2143772;82;21121;-76
2020/12/11 07:42:21;;;;;;;62.00;34.20;;;;;;;3.89;66.44;98186.62;2144341;83;21291;-77
2020/12/11 07:45:22;;;;;;;62.13;34.90;;;;;;;3.41;67.61;98189.11;2143482;83;21324;-77
2020/12/11 07:48:23;;;;;;;62.27;33.90;;;;;;;2.97;68.76;98194.22;2143328;83;21272;-78
2020/12/11 07:51:24;;;;;;;61.70;33.40;;;;;;;2.69;69.92;98193.77;2143073;82;21134;-77
2020/12/11 07:54:25;;;;;;;68.30;35.07;;;;;;;2.55;70.49;98198.44;2143632;82;21264;-78
2020/12/11 07:57:26;;;;;;;67.13;35.40;;;;;;;2.51;70.69;98194.01;2143707;82;21133;-77
2020/12/11 08:00:27;;;;;;;65.23;35.37;;;;;;;2.52;71.27;98193.18;2143826;82;21291;-77
2020/12/11 08:03:28;;;;;;;68.27;36.80;;;;;;;4.28;75.39;98178.64;2143499;83;21252;-77
2020/12/11 08:06:29;;;;;;;72.97;36.13;;;;;;;4.23;70.46;98179.35;2143505;83;21311;-78
2020/12/11 08:09:31;;;;;;;61.50;32.77;;;;;;;3.77;69.63;98169.96;2147455;83;21284;-79
2020/12/11 08:12:32;;;;;;;63.87;35.17;;;;;;;3.37;70.03;98163.18;2150563;82;21147;-78
2020/12/11 08:15:33;;;;;;;67.53;37.00;;;;;;;3.01;70.56;98166.41;2150690;82;21168;-78
2020/12/11 08:18:34;;;;;;;68.03;36.30;;;;;;;2.77;71.39;98181.13;2150106;82;21602;-77
2020/12/11 08:21:35;;;;;;;63.33;34.77;;;;;;;2.62;71.72;98178.93;2149749;82;21125;-78
2020/12/11 08:24:36;;;;;;;59.70;32.43;;;;;;;2.53;72.25;98178.19;2150019;82;21244;-78
2020/12/11 08:27:37;;;;;;;66.00;33.47;;;;;;;2.40;72.52;98177.33;2150181;82;21592;-77
2020/12/11 08:30:38;;;;;;;53.87;31.17;;;;;;;2.33;72.67;98181.81;2150101;82;21248;-78
2020/12/11 08:33:39;;;;;;;60.73;30.40;;;;;;;2.26;73.25;98185.00;2150201;83;21287;-77
2020/12/11 08:36:41;;;;;;;56.37;32.13;;;;;;;2.13;73.91;98172.54;2149983;82;21624;-77
2020/12/11 08:39:42;;;;;;;55.97;28.37;;;;;;;2.04;73.77;98173.52;2149433;82;21275;-78
2020/12/11 08:42:46;;;;;;;58.40;31.20;;;;;;;2.05;74.08;98170.12;2150474;82;21137;-78
2020/12/11 08:45:50;;;;;;;58.40;30.50;;;;;;;2.06;74.16;98172.74;2149639;83;21290;-77
2020/12/11 08:48:57;;;;;;;49.53;25.90;;;;;;;2.11;74.02;98179.34;2149256;83;21628;-76
2020/12/11 08:51:51;;;;;;;57.33;30.87;;;;;;;2.13;74.46;98176.41;2148192;83;21259;-77
2020/12/11 08:54:53;;;;;;;57.80;31.30;;;;;;;2.08;74.23;98178.82;2149196;82;21125;-78
2020/12/11 08:57:55;;;;;;;59.57;30.93;;;;;;;2.05;74.38;98177.84;2149523;82;21279;-78
2020/12/11 09:00:56;;;;;;;58.27;29.63;;;;;;;2.09;75.12;98178.41;2149458;82;21340;-78
2020/12/11 09:03:57;;;;;;;62.57;31.67;;;;;;;2.18;74.58;98175.73;2148769;83;21294;-79
2020/12/11 09:06:58;;;;;;;63.57;30.90;;;;;;;2.27;74.38;98171.30;2148422;83;21657;-78
2020/12/11 09:09:59;;;;;;;58.70;31.27;;;;;;;2.36;74.21;98170.32;2148625;82;21288;-77
2020/12/11 09:13:00;;;;;;;49.07;29.00;;;;;;;2.41;74.16;98167.48;2148020;83;21097;-77
2020/12/11 09:16:02;;;;;;;55.60;29.10;;;;;;;2.43;74.07;98156.81;2149350;83;21267;-79
2020/12/11 09:19:03;;;;;;;52.53;27.40;;;;;;;2.47;73.83;98164.23;2148479;82;21606;-77
2020/12/11 09:22:04;;;;;;;58.13;28.00;;;;;;;2.44;73.76;98165.42;2148621;83;21129;-75
2020/12/11 09:25:05;;;;;;;60.10;30.90;;;;;;;2.38;73.80;98170.38;2148189;83;21268;-78
2020/12/11 09:28:12;;;;;;;45.50;26.73;;;;;;;2.38;73.84;98170.38;2148793;83;21187;-78
2020/12/11 09:31:12;;;;;;;60.60;27.40;;;;;;;2.32;74.00;98171.05;2148617;82;21275;-78
2020/12/11 09:34:13;;;;;;;55.93;28.43;;;;;;;2.26;74.33;98175.99;2148664;83;21506;-77
2020/12/11 09:37:14;;;;;;;52.57;29.10;;;;;;;2.18;74.24;98165.84;2148430;83;21137;-78
2020/12/11 09:40:15;;;;;;;48.10;28.03;;;;;;;2.27;74.52;98158.43;2149238;83;21431;-78
2020/12/11 09:46:43;;;;;;;50.47;28.80;;;;;;;2.42;74.30;98143.89;2149366;83;21189;-78
2020/12/11 09:49:51;;;;;;;49.45;26.97;;;;;;;2.55;74.13;98147.32;2149294;82;21294;-79
2020/12/11 09:52:56;;;;;;;62.20;30.87;;;;;;;2.61;74.02;98149.25;2148520;82;21482;-79
2020/12/11 09:55:57;;;;;;;57.57;29.23;;;;;;;2.68;74.13;98151.20;2148708;82;21259;-78
2020/12/11 09:58:59;;;;;;;56.57;30.23;;;;;;;2.73;73.73;98157.37;2148962;82;21140;-80
2020/12/11 10:02:14;;;;;;;48.97;27.63;;;;;;;2.70;73.68;98154.70;2149266;83;21148;-78
2020/12/11 10:05:14;;;;;;;45.35;27.60;;;;;;;2.73;73.62;98152.21;2149636;82;21742;-78
2020/12/11 10:08:15;;;;;;;37.33;22.67;;;;;;;2.63;73.22;98148.47;2148927;82;21253;-78
2020/12/11 10:11:18;;;;;;;46.07;23.43;;;;;;;2.56;73.44;98142.22;2144207;82;21287;-78
2020/12/11 10:14:29;;;;;;;57.27;25.87;;;;;;;2.51;73.33;98136.45;2143811;82;21252;-78
2020/12/11 10:17:28;;;;;;;47.53;22.47;;;;;;;2.46;73.41;98141.46;2143245;82;21133;-80
2020/12/11 10:20:29;;;;;;;41.47;22.20;;;;;;;2.40;73.66;98140.39;2143776;83;21271;-78
2020/12/11 10:23:31;;;;;;;62.67;25.77;;;;;;;2.34;73.96;98137.20;2143931;83;21259;-78
2020/12/11 10:26:32;;;;;;;50.23;24.33;;;;;;;2.27;73.69;98135.25;2143341;83;21319;-77
2020/12/11 10:29:33;;;;;;;40.63;24.87;;;;;;;2.15;73.86;98136.13;2143449;82;21965;-78
2020/12/11 10:32:34;;;;;;;41.90;23.30;;;;;;;2.17;74.04;98134.48;2144442;82;21122;-80
2020/12/11 10:35:35;;;;;;;43.37;24.23;;;;;;;2.17;74.39;98122.90;2144448;82;21901;-76
2020/12/11 10:38:36;;;;;;;67.40;36.07;;;;;;;2.22;74.06;98123.92;2144051;82;21248;-79
2020/12/11 10:41:37;;;;;;;46.00;26.63;;;;;;;2.45;74.87;98124.67;2144278;82;21094;-78
2020/12/11 10:44:38;;;;;;;42.20;24.10;;;;;;;2.52;73.97;98122.34;2143970;82;21613;-79
2020/12/11 10:47:40;;;;;;;40.17;25.43;;;;;;;2.56;73.73;98120.31;2144200;82;21307;-78
2020/12/11 10:50:41;;;;;;;42.27;22.03;;;;;;;2.53;73.57;98122.80;2143776;82;21129;-77
2020/12/11 10:53:42;;;;;;;51.87;25.53;;;;;;;2.49;73.25;98119.66;2143947;83;21264;-77
2020/12/11 10:56:43;;;;;;;50.00;24.73;;;;;;;2.43;73.64;98119.47;2144045;82;21629;-77
2020/12/11 10:59:44;;;;;;;44.10;23.97;;;;;;;2.44;73.79;98112.61;2144441;82;21110;-77
2020/12/11 11:02:45;;;;;;;41.17;23.67;;;;;;;2.43;73.78;98103.14;2142250;82;21267;-79
2020/12/11 11:05:46;;;;;;;51.13;26.73;;;;;;;2.43;73.71;98102.72;2142837;83;21153;-77
2020/12/11 11:08:54;;;;;;;41.03;23.20;;;;;;;2.49;73.88;98102.92;2142945;82;21276;-78
2020/12/11 11:11:57;;;;;;;46.00;21.33;;;;;;;2.51;73.69;98099.98;2142774;83;21286;-77
2020/12/11 11:15:23;;;;;;;61.27;26.47;;;;;;;2.48;73.72;98109.31;2143589;83;21261;-77
2020/12/11 11:18:32;;;;;;;57.93;25.63;;;;;;;2.47;73.88;98102.00;2141635;83;21284;-79
2020/12/11 11:21:47;;;;;;;50.70;26.03;;;;;;;2.51;74.03;98099.10;2143607;83;21290;-77
2020/12/11 11:25:05;;;;;;;43.10;25.73;;;;;;;2.59;74.16;98098.92;2141224;83;21280;-77
2020/12/11 11:27:54;;;;;;;46.43;25.57;;;;;;;2.66;73.89;98091.00;2140635;83;21193;-77
2020/12/11 11:30:56;;;;;;;40.93;23.07;;;;;;;2.76;73.82;98095.61;2143181;83;21255;-77
2020/12/11 11:34:01;;;;;;;46.00;23.90;;;;;;;2.74;73.22;98079.23;2143559;82;21852;-76
2020/12/11 11:37:00;;;;;;;48.70;26.30;;;;;;;2.71;73.44;98072.69;2143151;83;21577;-76
2020/12/11 11:40:01;;;;;;;54.50;27.10;;;;;;;2.75;73.61;98069.38;2142662;82;21272;-76
2020/12/11 11:43:03;;;;;;;42.67;26.53;;;;;;;2.76;73.49;98068.55;2143239;83;21263;-77
2020/12/11 11:46:04;;;;;;;46.73;25.87;;;;;;;2.69;73.47;98062.75;2144027;83;21566;-76
2020/12/11 11:49:05;;;;;;;41.97;25.63;;;;;;;2.68;73.60;98055.85;2143396;83;21255;-79
2020/12/11 11:52:18;;;;;;;43.37;25.93;;;;;;;2.67;73.46;98058.84;2143409;83;21153;-78
2020/12/11 11:55:20;;;;;;;40.70;22.63;;;;;;;2.69;73.70;98056.31;2143459;83;21581;-77
2020/12/11 11:58:21;;;;;;;36.87;20.33;;;;;;;2.70;73.64;98052.91;2143309;83;21605;-77
2020/12/11 12:01:22;;;;;;;41.43;21.53;;;;;;;2.50;73.63;98055.72;2143787;83;21240;-76
2020/12/11 12:04:23;;;;;;;39.20;19.97;;;;;;;2.33;73.81;98051.75;2143558;82;21134;-76
2020/12/11 12:07:25;;;;;;;36.30;19.87;;;;;;;2.17;74.13;98055.95;2143482;83;21304;-76
2020/12/11 12:10:26;;;;;;;42.00;22.03;;;;;;;1.98;74.45;98057.47;2142136;82;21307;-75
2020/12/11 12:13:27;;;;;;;43.27;21.83;;;;;;;1.90;74.93;98048.22;2142778;83;21743;-75
2020/12/11 12:16:29;;;;;;;47.63;21.57;;;;;;;1.86;75.12;98046.37;2142827;82;21284;-76
2020/12/11 12:19:32;;;;;;;45.13;22.23;;;;;;;1.99;76.13;98043.78;2143642;83;21244;-77
2020/12/11 12:29:13;;;;;;;65.90;39.20;;;;;;;1.82;75.39;98035.51;2143108;83;21267;-76
2020/12/11 12:32:16;;;;;;;49.63;23.63;;;;;;;1.77;75.62;98033.20;2143469;82;21232;-77
2020/12/11 12:35:30;;;;;;;34.00;20.40;;;;;;;1.76;75.80;98032.73;2142947;83;21797;-77
2020/12/11 12:38:34;;;;;;;43.50;19.93;;;;;;;1.67;75.84;98027.25;2140530;83;21264;-77
2020/12/11 12:45:08;;;;;;;;;;;;;;;1.72;75.92;98030.84;2003792;83;22036;-75
2020/12/11 12:48:09;;;;;;;41.50;22.73;;;;;;;1.73;75.93;98033.47;2142407;83;20226;-76
2020/12/11 12:51:10;;;;;;;31.67;17.80;;;;;;;1.69;76.00;98036.77;2142374;82;21299;-78
2020/12/11 12:54:11;;;;;;;41.30;21.90;;;;;;;1.69;76.25;98034.20;2142851;83;21257;-78
2020/12/11 12:57:16;;;;;;;43.73;19.77;;;;;;;1.68;76.09;98033.73;2142969;82;21259;-77
2020/12/11 13:00:24;;;;;;;32.77;19.20;;;;;;;1.67;76.47;98028.13;2142504;82;21260;-77
2020/12/11 13:06:51;;;;;;;38.70;21.37;;;;;;;1.69;76.40;98032.91;2134945;83;21855;-75
2020/12/11 13:09:52;;;;;;;45.80;22.17;;;;;;;1.70;76.29;98031.21;2142059;82;21299;-79
2020/12/11 13:12:53;;;;;;;38.43;20.73;;;;;;;1.66;76.27;98035.37;2142096;83;21259;-79
2020/12/11 13:15:54;;;;;;;45.33;22.20;;;;;;;1.62;76.50;98026.22;2143317;83;21275;-79
2020/12/11 13:18:55;;;;;;;38.77;20.10;;;;;;;1.53;76.43;98014.80;2142719;82;21256;-78
2020/12/11 13:22:14;;;;;;;39.03;22.03;;;;;;;1.49;76.59;98020.66;2143091;82;21258;-78
2020/12/11 13:25:41;;;;;;;38.17;20.67;;;;;;;1.47;76.50;98023.59;2140784;83;21261;-78
2020/12/11 13:28:28;;;;;;;47.47;20.57;;;;;;;1.47;76.59;98022.72;2141724;83;21288;-79
2020/12/11 13:31:29;;;;;;;44.83;21.97;;;;;;;1.45;76.71;98018.81;2143964;82;21251;-77
2020/12/11 13:34:30;;;;;;;44.53;22.13;;;;;;;1.45;76.78;98023.08;2142897;82;21117;-78
2020/12/11 13:37:31;;;;;;;32.93;17.60;;;;;;;1.42;76.83;98011.40;2142314;83;21268;-79
2020/12/11 13:40:32;;;;;;;35.03;20.70;;;;;;;1.41;77.37;98013.09;2142897;83;21243;-79
2020/12/11 13:43:33;;;;;;;31.43;16.60;;;;;;;1.40;76.95;98013.92;2142980;82;21462;-79
2020/12/11 13:46:34;;;;;;;41.37;19.57;;;;;;;1.44;77.03;98015.77;2143155;83;21353;-79
2020/12/11 13:49:35;;;;;;;38.93;21.03;;;;;;;1.43;77.49;98023.03;2143545;82;21261;-78
2020/12/11 13:52:37;;;;;;;45.63;20.57;;;;;;;1.40;77.17;98024.62;2143403;82;21558;-79
2020/12/11 13:55:38;;;;;;;69.47;39.97;;;;;;;1.39;77.19;98024.16;2143901;82;21284;-78
2020/12/11 13:58:39;;;;;;;41.43;23.53;;;;;;;1.35;77.45;98023.58;2144206;83;21259;-78
2020/12/11 14:01:40;;;;;;;34.70;19.07;;;;;;;1.32;77.33;98024.35;2143895;82;21141;-78
2020/12/11 14:04:41;;;;;;;40.33;21.17;;;;;;;1.34;77.42;98016.69;2142806;82;21153;-79
2020/12/11 14:07:42;;;;;;;32.70;20.00;;;;;;;1.36;77.36;98009.49;2142547;83;21283;-77
2020/12/11 14:10:43;;;;;;;33.60;16.93;;;;;;;1.42;77.36;98007.55;2142827;82;21279;-77
2020/12/11 14:13:44;;;;;;;38.87;22.73;;;;;;;1.44;77.37;97999.47;2143516;82;21110;-79
2020/12/11 14:16:47;;;;;;;49.67;21.50;;;;;;;1.43;77.40;98012.73;2143610;82;21244;-77
2020/12/11 14:20:14;;;;;;;39.10;19.50;;;;;;;1.43;77.40;98002.86;2143927;82;21563;-77
2020/12/11 14:23:09;;;;;;;33.37;17.43;;;;;;;1.43;77.33;98009.30;2142358;83;21564;-77